LFRV/VNE METAR and TAF weather

Enter ICAO airport designator
Station Type Date Time Source
LFRV METAR 2019/10/14 06:30 UTC NOAA

LFRV 140630Z AUTO 05008KT 2900 BR OVC003 13/12 Q1003


Station Type Date Time Source
LFRV Decoded METAR 2019/10/14 06:30 UTC NOAA

Station name not available
Oct 14, 2019 - 02:30 AM EDT / 2019.10.14 0630 UTC
Wind: from the NE (050 degrees) at 9 MPH (8 KT):0
Visibility: 1 mile(s):0
Sky conditions: overcast
Weather: mist
Temperature: 55 F (13 C)
Dew Point: 53 F (12 C)
Relative Humidity: 93%
Pressure (altimeter): 29.62 in. Hg (1003 hPa)
ob: LFRV 140630Z AUTO 05008KT 2900 BR OVC003 13/12 Q1003
cycle: 6

Station Type Date Time Source
LFRV TAF UTC NOAA

Error!

Example: see airport list